Leopard Sea — 9VNR4 — position and weather

sailwx.info

Track history (hours):
 
Tides and Currents Weather Stations Pressure Air Temp Water Temp Dewpoint Dewpoint Depression Visibility Wind Speed Wind Dir Waves Ship Positions

Leopard Sea

Last reported at 2017-Sep-14 03:14 UTC. Time now 2017-Sep-25 06:14 UTC.
Position N 04°00' W 001°21'.
Warning: this ship's position is 11 days out of date.

Length 183 m; draft 12.4 m.

Type: Ship. MMSI: 563200000.

Date/timePositionNaut miles runAvg speedWind from/ knotsBaromVisibWave heightAir tempDewpointWater temp
2017-Sep-14 03:14N 04°00' W 001°21'512.2
2017-Sep-14 02:48N 03°59' W 001°26'612.2
2017-Sep-14 02:17N 03°57' W 001°32'812.2
2017-Sep-14 01:37N 03°55' W 001°40'412.0
2017-Sep-14 01:16N 03°54' W 001°44'312.1
2017-Sep-14 00:59N 03°54' W 001°47'612.0
2017-Sep-14 00:29N 03°53' W 001°53'612.2
2017-Sep-14 00:00N 03°53' W 001°59'1012.5
2017-Sep-13 23:13N 03°51' W 002°09'312.6
2017-Sep-13 22:59N 03°51' W 002°12'612.7
2017-Sep-13 22:29N 03°50' W 002°18'712.9
2017-Sep-13 21:56N 03°48' W 002°25'712.5
2017-Sep-13 21:24N 03°50' W 002°31'512.6
2017-Sep-13 21:00N 03°50' W 002°36'713.1
2017-Sep-13 20:28N 03°49' W 002°43'  
2017-Sep-07 03:07N 27°33' W 014°00'213.7
2017-Sep-07 02:56N 27°35' W 013°59'2813.4
2017-Sep-07 00:52N 27°59' W 013°41'513.1
2017-Sep-07 00:29N 28°03' W 013°38'613.0
2017-Sep-07 00:00N 28°08' W 013°35'713.2
2017-Sep-06 23:30N 28°14' W 013°31'813.2
2017-Sep-06 22:55N 28°20' W 013°26'513.1
2017-Sep-06 22:30N 28°25' W 013°23'813.5
2017-Sep-06 21:57N 28°31' W 013°19'612.9
2017-Sep-06 21:30N 28°36' W 013°15'712.9
2017-Sep-06 20:58N 28°42' W 013°10'713.1
2017-Sep-06 20:28N 28°47' W 013°06'913.1
2017-Sep-06 19:47N 28°55' W 013°01'16412.5
2017-Sep-06 06:43N 31°13' W 011°19'312.0
2017-Sep-06 06:29N 31°15' W 011°17'912.1
2017-Sep-06 05:44N 31°23' W 011°11'312.2
2017-Sep-06 05:30N 31°25' W 011°10'1712.5
2017-Sep-06 04:07N 31°40' W 010°59'212.8
2017-Sep-06 03:59N 31°41' W 010°58'6812.8
2017-Sep-05 22:42N 32°38' W 010°14'1913.1
2017-Sep-05 21:15N 32°54' W 010°02'313.3
2017-Sep-05 21:00N 32°57' W 010°00'713.2
2017-Sep-05 20:27N 33°03' W 009°56'4313.5
2017-Sep-05 17:16N 33°39' W 009°28'1213.5
2017-Sep-05 16:24N 33°49' W 009°20'513.5
2017-Sep-05 16:00N 33°54' W 009°17'1913.3
2017-Sep-05 14:34N 34°10' W 009°04'3512.8
2017-Sep-05 11:50N 34°39' W 008°42'6513.1
2017-Sep-05 06:53N 35°34' W 007°59'1413.3
2017-Sep-05 05:52N 35°45' W 007°50'613.4
2017-Sep-05 05:24N 35°50' W 007°46'513.4
2017-Sep-05 05:00N 35°55' W 007°42'2213.6
2017-Sep-05 03:25N 36°13' W 007°28'613.3
2017-Sep-05 02:58N 36°18' W 007°24'  
Track history (hours):
 
Tides and Currents Weather Stations Pressure Air Temp Water Temp Dewpoint Dewpoint Depression Visibility Wind Speed Wind Dir Waves Ship Positions

Leopard Sea

Last reported at 2017-Sep-14 03:14 UTC. Time now 2017-Sep-25 06:14 UTC.
Position N 04°00' W 001°21'.
Warning: this ship's position is 11 days out of date.

Length 183 m; draft 12.4 m.

Type: Ship. MMSI: 563200000.

Date/timePositionNaut miles runAvg speedWind from/ knotsBaromVisibWave heightAir tempDewpointWater temp
2017-Sep-14 03:14N 04°00' W 001°21'512.2
2017-Sep-14 02:48N 03°59' W 001°26'612.2
2017-Sep-14 02:17N 03°57' W 001°32'812.2
2017-Sep-14 01:37N 03°55' W 001°40'412.0
2017-Sep-14 01:16N 03°54' W 001°44'312.1
2017-Sep-14 00:59N 03°54' W 001°47'612.0
2017-Sep-14 00:29N 03°53' W 001°53'612.2
2017-Sep-14 00:00N 03°53' W 001°59'1012.5
2017-Sep-13 23:13N 03°51' W 002°09'312.6
2017-Sep-13 22:59N 03°51' W 002°12'612.7
2017-Sep-13 22:29N 03°50' W 002°18'712.9
2017-Sep-13 21:56N 03°48' W 002°25'712.5
2017-Sep-13 21:24N 03°50' W 002°31'512.6
2017-Sep-13 21:00N 03°50' W 002°36'713.1
2017-Sep-13 20:28N 03°49' W 002°43'  
2017-Sep-07 03:07N 27°33' W 014°00'213.7
2017-Sep-07 02:56N 27°35' W 013°59'2813.4
2017-Sep-07 00:52N 27°59' W 013°41'513.1
2017-Sep-07 00:29N 28°03' W 013°38'613.0
2017-Sep-07 00:00N 28°08' W 013°35'713.2
2017-Sep-06 23:30N 28°14' W 013°31'813.2
2017-Sep-06 22:55N 28°20' W 013°26'513.1
2017-Sep-06 22:30N 28°25' W 013°23'813.5
2017-Sep-06 21:57N 28°31' W 013°19'612.9
2017-Sep-06 21:30N 28°36' W 013°15'712.9
2017-Sep-06 20:58N 28°42' W 013°10'713.1
2017-Sep-06 20:28N 28°47' W 013°06'913.1
2017-Sep-06 19:47N 28°55' W 013°01'16412.5
2017-Sep-06 06:43N 31°13' W 011°19'312.0
2017-Sep-06 06:29N 31°15' W 011°17'912.1
2017-Sep-06 05:44N 31°23' W 011°11'312.2
2017-Sep-06 05:30N 31°25' W 011°10'1712.5
2017-Sep-06 04:07N 31°40' W 010°59'212.8
2017-Sep-06 03:59N 31°41' W 010°58'6812.8
2017-Sep-05 22:42N 32°38' W 010°14'1913.1
2017-Sep-05 21:15N 32°54' W 010°02'313.3
2017-Sep-05 21:00N 32°57' W 010°00'713.2
2017-Sep-05 20:27N 33°03' W 009°56'4313.5
2017-Sep-05 17:16N 33°39' W 009°28'1213.5
2017-Sep-05 16:24N 33°49' W 009°20'513.5
2017-Sep-05 16:00N 33°54' W 009°17'1913.3
2017-Sep-05 14:34N 34°10' W 009°04'3512.8
2017-Sep-05 11:50N 34°39' W 008°42'6513.1
2017-Sep-05 06:53N 35°34' W 007°59'1413.3
2017-Sep-05 05:52N 35°45' W 007°50'613.4
2017-Sep-05 05:24N 35°50' W 007°46'513.4
2017-Sep-05 05:00N 35°55' W 007°42'2213.6
2017-Sep-05 03:25N 36°13' W 007°28'613.3
2017-Sep-05 02:58N 36°18' W 007°24'  

Dump ship's entire track history